sensor_id;sensor_type;location;lat;lon;timestamp;pressure;altitude;pressure_sealevel;temperature;humidity
52105;BME280;38103;42.776;23.112;2023-11-21T00:00:50;93790.34;;;1.77;100.00
52105;BME280;38103;42.776;23.112;2023-11-21T00:03:15;93782.34;;;1.78;100.00
52105;BME280;38103;42.776;23.112;2023-11-21T00:05:41;93788.63;;;1.84;100.00
52105;BME280;38103;42.776;23.112;2023-11-21T00:08:07;93792.88;;;1.85;100.00
52105;BME280;38103;42.776;23.112;2023-11-21T00:10:34;93784.03;;;1.86;100.00
52105;BME280;38103;42.776;23.112;2023-11-21T00:13:00;93783.66;;;1.89;100.00
52105;BME280;38103;42.776;23.112;2023-11-21T00:15:27;93733.16;;;1.53;100.00
52105;BME280;38103;42.776;23.112;2023-11-21T00:17:52;93785.47;;;1.89;100.00
52105;BME280;38103;42.776;23.112;2023-11-21T00:20:18;93789.50;;;1.92;100.00
52105;BME280;38103;42.776;23.112;2023-11-21T00:22:43;93787.50;;;1.94;100.00
52105;BME280;38103;42.776;23.112;2023-11-21T00:25:08;93790.38;;;1.99;100.00
52105;BME280;38103;42.776;23.112;2023-11-21T00:27:35;93784.81;;;2.02;100.00
52105;BME280;38103;42.776;23.112;2023-11-21T00:30:01;93780.59;;;2.01;100.00
52105;BME280;38103;42.776;23.112;2023-11-21T00:32:26;93789.41;;;2.00;100.00
52105;BME280;38103;42.776;23.112;2023-11-21T00:34:51;93777.47;;;1.91;100.00
52105;BME280;38103;42.776;23.112;2023-11-21T00:37:17;93789.75;;;1.97;100.00
52105;BME280;38103;42.776;23.112;2023-11-21T00:39:42;93764.41;;;1.69;100.00
52105;BME280;38103;42.776;23.112;2023-11-21T00:42:07;93772.47;;;1.74;100.00
52105;BME280;38103;42.776;23.112;2023-11-21T00:44:33;93766.03;;;1.70;100.00
52105;BME280;38103;42.776;23.112;2023-11-21T00:46:59;93783.25;;;1.71;100.00
52105;BME280;38103;42.776;23.112;2023-11-21T00:49:25;93780.66;;;1.71;100.00
52105;BME280;38103;42.776;23.112;2023-11-21T00:51:50;93768.63;;;1.70;100.00
52105;BME280;38103;42.776;23.112;2023-11-21T00:54:15;93770.88;;;1.58;100.00
52105;BME280;38103;42.776;23.112;2023-11-21T00:56:42;93766.59;;;1.50;100.00
52105;BME280;38103;42.776;23.112;2023-11-21T00:59:08;93763.34;;;1.48;100.00
52105;BME280;38103;42.776;23.112;2023-11-21T01:01:33;93757.34;;;1.47;100.00
52105;BME280;38103;42.776;23.112;2023-11-21T01:03:58;93768.94;;;1.44;100.00
52105;BME280;38103;42.776;23.112;2023-11-21T01:06:24;93770.50;;;1.39;100.00
52105;BME280;38103;42.776;23.112;2023-11-21T01:08:49;93772.00;;;1.33;100.00
52105;BME280;38103;42.776;23.112;2023-11-21T01:11:15;93770.78;;;1.29;100.00
52105;BME280;38103;42.776;23.112;2023-11-21T01:13:40;93775.59;;;1.32;100.00
52105;BME280;38103;42.776;23.112;2023-11-21T01:16:06;93741.50;;;1.11;100.00
52105;BME280;38103;42.776;23.112;2023-11-21T01:18:32;93782.84;;;1.37;100.00
52105;BME280;38103;42.776;23.112;2023-11-21T01:20:58;93775.25;;;1.35;100.00
52105;BME280;38103;42.776;23.112;2023-11-21T01:23:26;93773.00;;;1.32;100.00
52105;BME280;38103;42.776;23.112;2023-11-21T01:25:52;93776.34;;;1.26;100.00
52105;BME280;38103;42.776;23.112;2023-11-21T01:28:17;93738.09;;;0.96;100.00
52105;BME280;38103;42.776;23.112;2023-11-21T01:30:42;93783.59;;;1.15;100.00
52105;BME280;38103;42.776;23.112;2023-11-21T01:33:09;93759.91;;;0.95;100.00
52105;BME280;38103;42.776;23.112;2023-11-21T01:35:35;93769.69;;;1.08;100.00
52105;BME280;38103;42.776;23.112;2023-11-21T01:38:01;93771.91;;;1.11;100.00
52105;BME280;38103;42.776;23.112;2023-11-21T01:40:26;93754.06;;;1.08;100.00
52105;BME280;38103;42.776;23.112;2023-11-21T01:42:53;93771.13;;;0.95;100.00
52105;BME280;38103;42.776;23.112;2023-11-21T01:45:18;93761.78;;;0.86;100.00
52105;BME280;38103;42.776;23.112;2023-11-21T01:47:44;93743.53;;;0.55;100.00
52105;BME280;38103;42.776;23.112;2023-11-21T01:50:14;93765.81;;;0.73;100.00
52105;BME280;38103;42.776;23.112;2023-11-21T01:52:42;93757.09;;;0.66;100.00
52105;BME280;38103;42.776;23.112;2023-11-21T01:55:09;93761.56;;;0.72;100.00
52105;BME280;38103;42.776;23.112;2023-11-21T01:57:35;93763.41;;;0.72;100.00
52105;BME280;38103;42.776;23.112;2023-11-21T02:00:03;93763.56;;;0.70;100.00
52105;BME280;38103;42.776;23.112;2023-11-21T02:02:47;93769.50;;;0.64;100.00
52105;BME280;38103;42.776;23.112;2023-11-21T02:05:14;93761.06;;;0.62;100.00
52105;BME280;38103;42.776;23.112;2023-11-21T02:07:43;93772.09;;;0.64;100.00
52105;BME280;38103;42.776;23.112;2023-11-21T02:10:10;93774.84;;;0.62;100.00
52105;BME280;38103;42.776;23.112;2023-11-21T02:12:40;93752.59;;;0.60;100.00
52105;BME280;38103;42.776;23.112;2023-11-21T02:15:06;93750.19;;;0.58;100.00
52105;BME280;38103;42.776;23.112;2023-11-21T02:17:42;93749.66;;;0.63;100.00
52105;BME280;38103;42.776;23.112;2023-11-21T02:20:12;93751.09;;;0.65;100.00
52105;BME280;38103;42.776;23.112;2023-11-21T02:22:41;93747.59;;;0.73;100.00
52105;BME280;38103;42.776;23.112;2023-11-21T02:25:08;93739.09;;;0.80;100.00
52105;BME280;38103;42.776;23.112;2023-11-21T02:27:33;93742.22;;;0.90;100.00
52105;BME280;38103;42.776;23.112;2023-11-21T02:29:59;93747.16;;;1.00;100.00
52105;BME280;38103;42.776;23.112;2023-11-21T02:32:26;93734.41;;;1.05;100.00
52105;BME280;38103;42.776;23.112;2023-11-21T02:34:51;93737.81;;;1.06;100.00
52105;BME280;38103;42.776;23.112;2023-11-21T02:37:17;93745.25;;;1.09;100.00
52105;BME280;38103;42.776;23.112;2023-11-21T02:39:42;93737.28;;;1.10;100.00
52105;BME280;38103;42.776;23.112;2023-11-21T02:42:08;93738.06;;;1.11;100.00
52105;BME280;38103;42.776;23.112;2023-11-21T02:44:33;93661.91;;;0.72;100.00
52105;BME280;38103;42.776;23.112;2023-11-21T02:46:59;93738.16;;;1.33;100.00
52105;BME280;38103;42.776;23.112;2023-11-21T02:49:25;93746.03;;;1.40;100.00
52105;BME280;38103;42.776;23.112;2023-11-21T02:51:53;93740.91;;;1.47;100.00
52105;BME280;38103;42.776;23.112;2023-11-21T02:54:20;93737.94;;;1.50;100.00
52105;BME280;38103;42.776;23.112;2023-11-21T02:56:47;93731.75;;;1.51;100.00
52105;BME280;38103;42.776;23.112;2023-11-21T02:59:12;93737.31;;;1.48;100.00
52105;BME280;38103;42.776;23.112;2023-11-21T03:01:38;93720.28;;;1.30;100.00
52105;BME280;38103;42.776;23.112;2023-11-21T03:04:03;93743.97;;;1.35;100.00
52105;BME280;38103;42.776;23.112;2023-11-21T03:06:29;93742.38;;;1.34;100.00
52105;BME280;38103;42.776;23.112;2023-11-21T03:08:54;93732.13;;;1.32;100.00
52105;BME280;38103;42.776;23.112;2023-11-21T03:11:19;93741.63;;;1.40;100.00
52105;BME280;38103;42.776;23.112;2023-11-21T03:13:45;93744.88;;;1.42;100.00
52105;BME280;38103;42.776;23.112;2023-11-21T03:16:11;93740.66;;;1.41;100.00
52105;BME280;38103;42.776;23.112;2023-11-21T03:18:37;93742.63;;;1.39;100.00
52105;BME280;38103;42.776;23.112;2023-11-21T03:21:06;93684.06;;;0.98;100.00
52105;BME280;38103;42.776;23.112;2023-11-21T03:23:34;93729.72;;;1.31;100.00
52105;BME280;38103;42.776;23.112;2023-11-21T03:26:00;93748.84;;;1.38;100.00
52105;BME280;38103;42.776;23.112;2023-11-21T03:28:26;93743.56;;;1.31;100.00
52105;BME280;38103;42.776;23.112;2023-11-21T03:30:52;93724.44;;;1.09;100.00
52105;BME280;38103;42.776;23.112;2023-11-21T03:33:18;93747.94;;;1.31;100.00
52105;BME280;38103;42.776;23.112;2023-11-21T03:35:43;93735.91;;;1.30;100.00
52105;BME280;38103;42.776;23.112;2023-11-21T03:38:10;93735.53;;;1.33;100.00
52105;BME280;38103;42.776;23.112;2023-11-21T03:40:35;93704.84;;;1.28;100.00
52105;BME280;38103;42.776;23.112;2023-11-21T03:43:01;93704.28;;;1.33;100.00
52105;BME280;38103;42.776;23.112;2023-11-21T03:45:26;93732.09;;;1.48;100.00
52105;BME280;38103;42.776;23.112;2023-11-21T03:47:51;93731.75;;;1.51;100.00
52105;BME280;38103;42.776;23.112;2023-11-21T03:50:17;93698.19;;;1.26;100.00
52105;BME280;38103;42.776;23.112;2023-11-21T03:52:42;93736.44;;;1.40;100.00
52105;BME280;38103;42.776;23.112;2023-11-21T03:55:08;93728.00;;;1.38;100.00
52105;BME280;38103;42.776;23.112;2023-11-21T03:57:33;93694.25;;;1.15;100.00
52105;BME280;38103;42.776;23.112;2023-11-21T03:59:59;93731.56;;;1.37;100.00
52105;BME280;38103;42.776;23.112;2023-11-21T04:02:24;93733.22;;;1.38;100.00
52105;BME280;38103;42.776;23.112;2023-11-21T04:04:51;93728.91;;;1.30;100.00
52105;BME280;38103;42.776;23.112;2023-11-21T04:07:16;93723.44;;;1.25;100.00
52105;BME280;38103;42.776;23.112;2023-11-21T04:09:43;93724.25;;;1.26;100.00
52105;BME280;38103;42.776;23.112;2023-11-21T04:12:08;93727.41;;;1.21;100.00
52105;BME280;38103;42.776;23.112;2023-11-21T04:14:36;93718.22;;;1.25;100.00
52105;BME280;38103;42.776;23.112;2023-11-21T04:17:02;93724.25;;;1.26;100.00
52105;BME280;38103;42.776;23.112;2023-11-21T04:19:29;93702.72;;;1.02;100.00
52105;BME280;38103;42.776;23.112;2023-11-21T04:21:55;93729.75;;;1.16;100.00
52105;BME280;38103;42.776;23.112;2023-11-21T04:24:20;93614.28;;;0.41;100.00
52105;BME280;38103;42.776;23.112;2023-11-21T04:26:45;93728.81;;;1.08;100.00
52105;BME280;38103;42.776;23.112;2023-11-21T04:29:11;93728.56;;;1.03;100.00
52105;BME280;38103;42.776;23.112;2023-11-21T04:31:37;93726.75;;;1.04;100.00
52105;BME280;38103;42.776;23.112;2023-11-21T04:34:02;93733.16;;;1.01;100.00
52105;BME280;38103;42.776;23.112;2023-11-21T04:36:30;93728.69;;;0.95;100.00
52105;BME280;38103;42.776;23.112;2023-11-21T04:38:58;93728.94;;;0.85;100.00
52105;BME280;38103;42.776;23.112;2023-11-21T04:41:23;93736.47;;;0.80;100.00
52105;BME280;38103;42.776;23.112;2023-11-21T04:43:49;93744.03;;;0.74;100.00
52105;BME280;38103;42.776;23.112;2023-11-21T04:46:14;93745.72;;;0.67;100.00
52105;BME280;38103;42.776;23.112;2023-11-21T04:48:40;93741.41;;;0.59;100.00
52105;BME280;38103;42.776;23.112;2023-11-21T04:51:05;93735.38;;;0.59;100.00
52105;BME280;38103;42.776;23.112;2023-11-21T04:53:31;93735.72;;;0.55;100.00
52105;BME280;38103;42.776;23.112;2023-11-21T04:55:57;93737.72;;;0.53;100.00
52105;BME280;38103;42.776;23.112;2023-11-21T04:58:23;93719.38;;;0.31;100.00
52105;BME280;38103;42.776;23.112;2023-11-21T05:00:48;93744.16;;;0.42;100.00
52105;BME280;38103;42.776;23.112;2023-11-21T05:03:15;93737.50;;;0.40;100.00
52105;BME280;38103;42.776;23.112;2023-11-21T05:05:40;93737.16;;;0.43;100.00
52105;BME280;38103;42.776;23.112;2023-11-21T05:08:05;93737.78;;;0.45;100.00
52105;BME280;38103;42.776;23.112;2023-11-21T05:10:31;93729.97;;;0.45;100.00
52105;BME280;38103;42.776;23.112;2023-11-21T05:12:56;93727.03;;;0.48;100.00
52105;BME280;38103;42.776;23.112;2023-11-21T05:15:21;93721.81;;;0.48;100.00
52105;BME280;38103;42.776;23.112;2023-11-21T05:17:48;93728.00;;;0.47;100.00
52105;BME280;38103;42.776;23.112;2023-11-21T05:20:15;93732.84;;;0.50;100.00
52105;BME280;38103;42.776;23.112;2023-11-21T05:22:49;93736.09;;;0.52;100.00
52105;BME280;38103;42.776;23.112;2023-11-21T05:25:15;93729.69;;;0.40;100.00
52105;BME280;38103;42.776;23.112;2023-11-21T05:27:42;93750.09;;;0.51;100.00
52105;BME280;38103;42.776;23.112;2023-11-21T05:30:07;93740.72;;;0.42;100.00
52105;BME280;38103;42.776;23.112;2023-11-21T05:32:38;93724.22;;;0.35;100.00
52105;BME280;38103;42.776;23.112;2023-11-21T05:35:04;93750.09;;;0.51;100.00
52105;BME280;38103;42.776;23.112;2023-11-21T05:37:35;93744.22;;;0.49;100.00
52105;BME280;38103;42.776;23.112;2023-11-21T05:40:01;93734.09;;;0.54;100.00
52105;BME280;38103;42.776;23.112;2023-11-21T05:42:34;93738.97;;;0.58;100.00
52105;BME280;38103;42.776;23.112;2023-11-21T05:45:00;93717.59;;;0.47;100.00
52105;BME280;38103;42.776;23.112;2023-11-21T05:47:36;93733.06;;;0.64;100.00
52105;BME280;38103;42.776;23.112;2023-11-21T05:50:02;93726.97;;;0.57;100.00
52105;BME280;38103;42.776;23.112;2023-11-21T05:52:27;93739.31;;;0.54;100.00
52105;BME280;38103;42.776;23.112;2023-11-21T05:54:52;93731.78;;;0.60;100.00
52105;BME280;38103;42.776;23.112;2023-11-21T05:57:18;93743.47;;;0.64;100.00
52105;BME280;38103;42.776;23.112;2023-11-21T05:59:43;93746.34;;;0.69;100.00
52105;BME280;38103;42.776;23.112;2023-11-21T06:02:08;93747.94;;;0.70;100.00
52105;BME280;38103;42.776;23.112;2023-11-21T06:04:34;93745.63;;;0.75;100.00
52105;BME280;38103;42.776;23.112;2023-11-21T06:06:59;93758.91;;;0.81;100.00
52105;BME280;38103;42.776;23.112;2023-11-21T06:09:26;93753.81;;;0.87;100.00
52105;BME280;38103;42.776;23.112;2023-11-21T06:11:52;93753.81;;;0.87;100.00
52105;BME280;38103;42.776;23.112;2023-11-21T06:14:18;93764.38;;;0.86;100.00
52105;BME280;38103;42.776;23.112;2023-11-21T06:16:43;93762.31;;;0.96;100.00
52105;BME280;38103;42.776;23.112;2023-11-21T06:19:10;93731.63;;;0.76;100.00
52105;BME280;38103;42.776;23.112;2023-11-21T06:21:36;93764.50;;;1.08;100.00
52105;BME280;38103;42.776;23.112;2023-11-21T06:24:01;93753.97;;;1.16;100.00
52105;BME280;38103;42.776;23.112;2023-11-21T06:26:27;93761.34;;;1.28;100.00
52105;BME280;38103;42.776;23.112;2023-11-21T06:28:52;93755.63;;;1.39;100.00
52105;BME280;38103;42.776;23.112;2023-11-21T06:31:19;93749.72;;;1.45;100.00
52105;BME280;38103;42.776;23.112;2023-11-21T06:33:44;93752.38;;;1.67;100.00
52105;BME280;38103;42.776;23.112;2023-11-21T06:36:09;93760.94;;;1.83;100.00
52105;BME280;38103;42.776;23.112;2023-11-21T06:38:37;93757.50;;;1.98;100.00
52105;BME280;38103;42.776;23.112;2023-11-21T06:41:02;93759.22;;;2.12;100.00
52105;BME280;38103;42.776;23.112;2023-11-21T06:43:29;93762.94;;;2.25;100.00
52105;BME280;38103;42.776;23.112;2023-11-21T06:45:56;93765.44;;;2.33;100.00
52105;BME280;38103;42.776;23.112;2023-11-21T06:48:22;93765.53;;;2.47;100.00
52105;BME280;38103;42.776;23.112;2023-11-21T06:50:47;93764.50;;;2.70;100.00
52105;BME280;38103;42.776;23.112;2023-11-21T06:53:13;93765.84;;;2.88;100.00
52105;BME280;38103;42.776;23.112;2023-11-21T06:55:38;93765.53;;;3.05;100.00
52105;BME280;38103;42.776;23.112;2023-11-21T06:58:04;93769.28;;;3.31;100.00
52105;BME280;38103;42.776;23.112;2023-11-21T07:00:30;93765.59;;;3.61;100.00
52105;BME280;38103;42.776;23.112;2023-11-21T07:02:55;93766.88;;;3.85;100.00
52105;BME280;38103;42.776;23.112;2023-11-21T07:05:21;93768.34;;;4.08;100.00
52105;BME280;38103;42.776;23.112;2023-11-21T07:07:48;93764.13;;;4.21;100.00
52105;BME280;38103;42.776;23.112;2023-11-21T07:10:14;93753.44;;;4.16;100.00
52105;BME280;38103;42.776;23.112;2023-11-21T07:12:39;93759.09;;;4.19;100.00
52105;BME280;38103;42.776;23.112;2023-11-21T07:15:06;93762.34;;;4.42;100.00
52105;BME280;38103;42.776;23.112;2023-11-21T07:17:34;93715.41;;;4.33;100.00
52105;BME280;38103;42.776;23.112;2023-11-21T07:20:01;93769.19;;;4.70;100.00
52105;BME280;38103;42.776;23.112;2023-11-21T07:22:27;93762.75;;;4.86;100.00
52105;BME280;38103;42.776;23.112;2023-11-21T07:24:52;93755.88;;;4.92;100.00
52105;BME280;38103;42.776;23.112;2023-11-21T07:27:18;93765.94;;;4.95;100.00
52105;BME280;38103;42.776;23.112;2023-11-21T07:29:43;93763.94;;;4.84;100.00
52105;BME280;38103;42.776;23.112;2023-11-21T07:32:09;93758.31;;;4.73;100.00
52105;BME280;38103;42.776;23.112;2023-11-21T07:34:35;93756.28;;;4.62;100.00
52105;BME280;38103;42.776;23.112;2023-11-21T07:37:01;93767.97;;;4.73;100.00
52105;BME280;38103;42.776;23.112;2023-11-21T07:39:26;93761.53;;;4.75;100.00
52105;BME280;38103;42.776;23.112;2023-11-21T07:41:52;93764.53;;;4.86;100.00
52105;BME280;38103;42.776;23.112;2023-11-21T07:44:17;93759.06;;;5.08;100.00
52105;BME280;38103;42.776;23.112;2023-11-21T07:46:43;93760.66;;;5.22;100.00
52105;BME280;38103;42.776;23.112;2023-11-21T07:49:09;93703.09;;;4.88;100.00
52105;BME280;38103;42.776;23.112;2023-11-21T07:51:34;93764.25;;;5.35;100.00
52105;BME280;38103;42.776;23.112;2023-11-21T07:54:00;93757.81;;;5.31;100.00
52105;BME280;38103;42.776;23.112;2023-11-21T07:56:25;93745.78;;;5.02;100.00
52105;BME280;38103;42.776;23.112;2023-11-21T07:58:51;93743.75;;;4.98;100.00
52105;BME280;38103;42.776;23.112;2023-11-21T08:01:16;93746.97;;;5.20;100.00
52105;BME280;38103;42.776;23.112;2023-11-21T08:03:42;93746.91;;;5.34;100.00
52105;BME280;38103;42.776;23.112;2023-11-21T08:06:09;93750.16;;;5.29;100.00
52105;BME280;38103;42.776;23.112;2023-11-21T08:08:35;93753.59;;;5.23;100.00
52105;BME280;38103;42.776;23.112;2023-11-21T08:11:00;93733.72;;;4.88;100.00
52105;BME280;38103;42.776;23.112;2023-11-21T08:13:29;93742.19;;;4.76;100.00
52105;BME280;38103;42.776;23.112;2023-11-21T08:15:59;93741.75;;;4.93;100.00
52105;BME280;38103;42.776;23.112;2023-11-21T08:18:29;93746.63;;;4.83;100.00
52105;BME280;38103;42.776;23.112;2023-11-21T08:20:55;93736.16;;;4.69;100.00
52105;BME280;38103;42.776;23.112;2023-11-21T08:23:21;93757.09;;;4.83;100.00
52105;BME280;38103;42.776;23.112;2023-11-21T08:25:50;93751.44;;;4.99;100.00
52105;BME280;38103;42.776;23.112;2023-11-21T08:28:16;93753.81;;;5.14;100.00
52105;BME280;38103;42.776;23.112;2023-11-21T08:30:41;93756.22;;;5.16;100.00
52105;BME280;38103;42.776;23.112;2023-11-21T08:33:07;93750.19;;;5.22;100.00
52105;BME280;38103;42.776;23.112;2023-11-21T08:35:33;93753.53;;;5.43;100.00
52105;BME280;38103;42.776;23.112;2023-11-21T08:37:59;93758.16;;;5.41;100.00
52105;BME280;38103;42.776;23.112;2023-11-21T08:40:24;93745.25;;;5.46;100.00
52105;BME280;38103;42.776;23.112;2023-11-21T08:42:50;93734.28;;;5.63;100.00
52105;BME280;38103;42.776;23.112;2023-11-21T08:45:18;93723.84;;;5.50;100.00
52105;BME280;38103;42.776;23.112;2023-11-21T08:47:44;93736.69;;;5.72;100.00
52105;BME280;38103;42.776;23.112;2023-11-21T08:50:10;93730.53;;;5.91;100.00
52105;BME280;38103;42.776;23.112;2023-11-21T08:52:37;93722.94;;;6.16;100.00
52105;BME280;38103;42.776;23.112;2023-11-21T08:55:04;93709.38;;;6.19;100.00
52105;BME280;38103;42.776;23.112;2023-11-21T08:57:34;93719.03;;;6.25;100.00
52105;BME280;38103;42.776;23.112;2023-11-21T09:00:00;93708.59;;;6.18;100.00
52105;BME280;38103;42.776;23.112;2023-11-21T09:02:26;93704.78;;;6.14;100.00
52105;BME280;38103;42.776;23.112;2023-11-21T09:04:52;93690.88;;;6.07;100.00
52105;BME280;38103;42.776;23.112;2023-11-21T09:07:19;93666.31;;;5.94;100.00
52105;BME280;38103;42.776;23.112;2023-11-21T09:09:48;93682.53;;;6.17;100.00
52105;BME280;38103;42.776;23.112;2023-11-21T09:12:14;93672.78;;;6.24;100.00
52105;BME280;38103;42.776;23.112;2023-11-21T09:14:40;93637.19;;;6.09;100.00
52105;BME280;38103;42.776;23.112;2023-11-21T09:17:06;93662.34;;;6.43;100.00
52105;BME280;38103;42.776;23.112;2023-11-21T09:19:40;93658.56;;;6.57;100.00
52105;BME280;38103;42.776;23.112;2023-11-21T09:22:06;93646.34;;;6.70;100.00
52105;BME280;38103;42.776;23.112;2023-11-21T09:24:32;93660.69;;;6.93;100.00
52105;BME280;38103;42.776;23.112;2023-11-21T09:26:58;93649.56;;;7.10;100.00
52105;BME280;38103;42.776;23.112;2023-11-21T09:29:28;93640.19;;;7.14;100.00
52105;BME280;38103;42.776;23.112;2023-11-21T09:31:54;93645.91;;;7.11;100.00
52105;BME280;38103;42.776;23.112;2023-11-21T09:34:20;93631.00;;;7.04;100.00
52105;BME280;38103;42.776;23.112;2023-11-21T09:36:47;93614.22;;;6.87;100.00
52105;BME280;38103;42.776;23.112;2023-11-21T09:39:13;93604.88;;;6.91;100.00
52105;BME280;38103;42.776;23.112;2023-11-21T09:41:52;93596.56;;;6.94;100.00
52105;BME280;38103;42.776;23.112;2023-11-21T09:46:59;93593.66;;;6.84;100.00
52105;BME280;38103;42.776;23.112;2023-11-21T09:49:26;93588.81;;;6.80;100.00
52105;BME280;38103;42.776;23.112;2023-11-21T09:51:54;93588.69;;;6.94;100.00
52105;BME280;38103;42.776;23.112;2023-11-21T09:54:21;93586.63;;;6.96;100.00
52105;BME280;38103;42.776;23.112;2023-11-21T09:56:47;93589.84;;;6.98;100.00
52105;BME280;38103;42.776;23.112;2023-11-21T09:59:15;93586.19;;;6.99;100.00
52105;BME280;38103;42.776;23.112;2023-11-21T10:01:41;93587.38;;;7.03;100.00
52105;BME280;38103;42.776;23.112;2023-11-21T10:04:10;93579.16;;;7.12;100.00
52105;BME280;38103;42.776;23.112;2023-11-21T10:06:41;93589.50;;;7.25;100.00
52105;BME280;38103;42.776;23.112;2023-11-21T10:09:10;93582.00;;;7.29;100.00
52105;BME280;38103;42.776;23.112;2023-11-21T10:11:41;93579.38;;;7.10;100.00
52105;BME280;38103;42.776;23.112;2023-11-21T10:14:08;93559.47;;;7.02;100.00
52105;BME280;38103;42.776;23.112;2023-11-21T10:16:41;93566.59;;;7.14;100.00
52105;BME280;38103;42.776;23.112;2023-11-21T10:19:09;93565.88;;;7.07;100.00
52105;BME280;38103;42.776;23.112;2023-11-21T10:21:35;93566.94;;;6.87;100.00
52105;BME280;38103;42.776;23.112;2023-11-21T10:24:01;93556.72;;;6.78;100.00
52105;BME280;38103;42.776;23.112;2023-11-21T10:26:29;93552.94;;;6.74;100.00
52105;BME280;38103;42.776;23.112;2023-11-21T10:29:01;93555.41;;;6.69;100.00
52105;BME280;38103;42.776;23.112;2023-11-21T10:31:29;93526.66;;;6.55;100.00
52105;BME280;38103;42.776;23.112;2023-11-21T10:34:18;93540.66;;;6.68;100.00
52105;BME280;38103;42.776;23.112;2023-11-21T10:36:42;93537.84;;;6.69;100.00
52105;BME280;38103;42.776;23.112;2023-11-21T10:39:08;93544.91;;;6.69;100.00
52105;BME280;38103;42.776;23.112;2023-11-21T10:41:35;93514.44;;;6.49;100.00
52105;BME280;38103;42.776;23.112;2023-11-21T10:44:01;93531.19;;;6.67;100.00
52105;BME280;38103;42.776;23.112;2023-11-21T10:46:29;93535.94;;;6.58;100.00
52105;BME280;38103;42.776;23.112;2023-11-21T10:48:55;93483.06;;;6.35;100.00
52105;BME280;38103;42.776;23.112;2023-11-21T10:51:21;93533.06;;;6.78;100.00
52105;BME280;38103;42.776;23.112;2023-11-21T10:53:47;93522.13;;;6.81;100.00
52105;BME280;38103;42.776;23.112;2023-11-21T10:56:14;93525.31;;;6.84;100.00
52105;BME280;38103;42.776;23.112;2023-11-21T10:58:45;93498.88;;;6.66;100.00
52105;BME280;38103;42.776;23.112;2023-11-21T11:01:11;93518.16;;;6.91;100.00
52105;BME280;38103;42.776;23.112;2023-11-21T11:03:37;93483.72;;;6.80;100.00
52105;BME280;38103;42.776;23.112;2023-11-21T11:06:04;93460.63;;;6.70;100.00
52105;BME280;38103;42.776;23.112;2023-11-21T11:08:34;93502.78;;;7.07;100.00
52105;BME280;38103;42.776;23.112;2023-11-21T11:11:00;93503.97;;;7.11;100.00
52105;BME280;38103;42.776;23.112;2023-11-21T11:13:26;93502.47;;;7.15;100.00
52105;BME280;38103;42.776;23.112;2023-11-21T11:15:57;93505.38;;;7.25;100.00
52105;BME280;38103;42.776;23.112;2023-11-21T11:18:24;93501.72;;;7.26;100.00
52105;BME280;38103;42.776;23.112;2023-11-21T11:20:51;93497.47;;;7.25;100.00
52105;BME280;38103;42.776;23.112;2023-11-21T11:23:33;93500.53;;;7.10;100.00
52105;BME280;38103;42.776;23.112;2023-11-21T11:26:17;93490.47;;;7.07;100.00
52105;BME280;38103;42.776;23.112;2023-11-21T11:29:01;93499.47;;;6.99;100.00
52105;BME280;38103;42.776;23.112;2023-11-21T11:36:48;93509.16;;;7.30;100.00
52105;BME280;38103;42.776;23.112;2023-11-21T11:39:27;93503.34;;;7.40;100.00
52105;BME280;38103;42.776;23.112;2023-11-21T11:41:55;93507.94;;;7.44;100.00
52105;BME280;38103;42.776;23.112;2023-11-21T11:47:25;93510.22;;;7.53;100.00
52105;BME280;38103;42.776;23.112;2023-11-21T11:52:43;93522.59;;;7.64;100.00
52105;BME280;38103;42.776;23.112;2023-11-21T11:55:13;93515.84;;;7.68;100.00
52105;BME280;38103;42.776;23.112;2023-11-21T11:57:42;93513.91;;;7.76;100.00
52105;BME280;38103;42.776;23.112;2023-11-21T12:00:11;93510.25;;;7.77;100.00
52105;BME280;38103;42.776;23.112;2023-11-21T12:02:41;93507.06;;;7.75;100.00
52105;BME280;38103;42.776;23.112;2023-11-21T12:05:17;93504.31;;;7.69;100.00
52105;BME280;38103;42.776;23.112;2023-11-21T12:07:51;93504.19;;;7.64;100.00
52105;BME280;38103;42.776;23.112;2023-11-21T12:10:22;93496.28;;;7.64;100.00
52105;BME280;38103;42.776;23.112;2023-11-21T12:12:51;93500.41;;;7.60;100.00
52105;BME280;38103;42.776;23.112;2023-11-21T12:15:18;93489.91;;;7.60;100.00
52105;BME280;38103;42.776;23.112;2023-11-21T12:17:44;93486.22;;;7.61;100.00
52105;BME280;38103;42.776;23.112;2023-11-21T12:20:14;93482.44;;;7.57;100.00
52105;BME280;38103;42.776;23.112;2023-11-21T12:22:43;93473.41;;;7.53;100.00
52105;BME280;38103;42.776;23.112;2023-11-21T12:25:09;93466.19;;;7.48;100.00
52105;BME280;38103;42.776;23.112;2023-11-21T12:27:34;93468.38;;;7.39;100.00
52105;BME280;38103;42.776;23.112;2023-11-21T12:30:00;93465.84;;;7.44;100.00
52105;BME280;38103;42.776;23.112;2023-11-21T12:32:25;93452.09;;;7.42;100.00
52105;BME280;38103;42.776;23.112;2023-11-21T12:34:52;93437.81;;;7.26;100.00
52105;BME280;38103;42.776;23.112;2023-11-21T12:37:17;93442.97;;;7.33;100.00
52105;BME280;38103;42.776;23.112;2023-11-21T12:39:43;93436.13;;;7.32;100.00
52105;BME280;38103;42.776;23.112;2023-11-21T12:42:09;93436.13;;;7.32;100.00
52105;BME280;38103;42.776;23.112;2023-11-21T12:44:35;93438.28;;;7.35;100.00
52105;BME280;38103;42.776;23.112;2023-11-21T12:47:02;93446.75;;;7.37;100.00
52105;BME280;38103;42.776;23.112;2023-11-21T12:49:28;93437.25;;;7.36;100.00
52105;BME280;38103;42.776;23.112;2023-11-21T12:51:53;93431.63;;;7.32;100.00
52105;BME280;38103;42.776;23.112;2023-11-21T12:54:19;93426.03;;;7.29;100.00
52105;BME280;38103;42.776;23.112;2023-11-21T12:56:45;93433.50;;;7.32;100.00
52105;BME280;38103;42.776;23.112;2023-11-21T12:59:14;93434.06;;;7.34;100.00
52105;BME280;38103;42.776;23.112;2023-11-21T13:01:42;93412.09;;;7.16;100.00